createdAt,value
2023-01-02T00:02:04.146Z,75.50
2023-01-02T00:10:27.054Z,75.61
2023-01-02T00:18:50.376Z,75.43
2023-01-02T00:27:14.495Z,75.45
2023-01-02T00:35:38.405Z,75.47
2023-01-02T00:44:01.295Z,75.50
2023-01-02T00:52:24.236Z,75.60
2023-01-02T01:00:47.834Z,75.69
2023-01-02T01:09:10.693Z,75.67
2023-01-02T01:17:34.041Z,75.42
2023-01-02T01:25:56.840Z,75.64
2023-01-02T01:34:19.629Z,75.54
2023-01-02T01:42:42.490Z,75.71
2023-01-02T01:51:05.791Z,75.75
2023-01-02T01:59:28.959Z,75.58
2023-01-02T02:08:10.586Z,75.82
2023-01-02T02:16:49.310Z,75.76
2023-01-02T02:25:21.196Z,76.01
2023-01-02T02:34:16.834Z,76.07
2023-01-02T02:42:52.738Z,76.20
2023-01-02T02:51:30.653Z,76.21
2023-01-02T02:59:53.639Z,76.23
2023-01-02T03:08:33.963Z,76.27
2023-01-02T03:17:05.340Z,76.61
2023-01-02T03:25:29.332Z,76.61
2023-01-02T03:33:58.164Z,76.67
2023-01-02T03:42:35.962Z,76.56
2023-01-02T03:51:00.503Z,76.43
2023-01-02T03:59:49.205Z,76.41
2023-01-02T04:08:20.444Z,76.59
2023-01-02T04:16:46.531Z,76.42
2023-01-02T04:25:16.500Z,76.39
2023-01-02T04:33:51.766Z,76.35
2023-01-02T04:42:14.591Z,76.45
2023-01-02T04:50:37.637Z,76.49
2023-01-02T04:59:00.417Z,76.48
2023-01-02T05:07:23.297Z,76.67
2023-01-02T05:15:46.236Z,76.72
2023-01-02T05:24:09.168Z,76.38
2023-01-02T05:32:31.935Z,76.58
2023-01-02T05:41:06.395Z,76.40
2023-01-02T05:49:29.274Z,76.49
2023-01-02T05:57:56.180Z,76.38
2023-01-02T06:06:21.198Z,76.22
2023-01-02T06:14:43.980Z,76.56
2023-01-02T06:23:07.306Z,76.50
2023-01-02T06:31:33.526Z,76.50
2023-01-02T06:39:57.351Z,76.56
2023-01-02T06:48:20.583Z,76.71
2023-01-02T06:56:43.420Z,76.82
2023-01-02T07:05:06.817Z,77.01
2023-01-02T07:13:29.669Z,76.72
2023-01-02T07:21:52.504Z,76.81
2023-01-02T07:30:15.449Z,76.89
2023-01-02T07:38:39.985Z,77.06
2023-01-02T07:47:03.945Z,76.92
2023-01-02T07:55:28.968Z,76.83
2023-01-02T08:03:53.681Z,77.35
2023-01-02T08:12:16.588Z,77.25
2023-01-02T08:20:39.433Z,77.35
2023-01-02T08:29:02.385Z,77.48
2023-01-02T08:37:25.153Z,77.34
2023-01-02T08:45:48.067Z,77.46
2023-01-02T08:54:11.339Z,77.40
2023-01-02T09:02:34.247Z,77.34
2023-01-02T09:10:57.178Z,77.43
2023-01-02T09:19:20.066Z,77.61
2023-01-02T09:27:42.843Z,77.40
2023-01-02T09:36:09.272Z,77.72
2023-01-02T09:45:08.498Z,77.57
2023-01-02T09:53:34.640Z,77.83
2023-01-02T10:01:57.438Z,77.57
2023-01-02T10:10:34.218Z,77.63
2023-01-02T10:19:01.316Z,77.76
2023-01-02T10:27:31.470Z,77.76
2023-01-02T10:36:01.186Z,77.91
2023-01-02T10:44:33.748Z,77.71
2023-01-02T10:53:09.526Z,78.09
2023-01-02T11:01:32.723Z,78.08
2023-01-02T11:09:57.434Z,77.79
2023-01-02T11:18:27.255Z,77.89
2023-01-02T11:26:50.419Z,77.89
2023-01-02T11:35:50.986Z,77.92
2023-01-02T11:44:26.265Z,77.92
2023-01-02T11:52:54.222Z,77.89
2023-01-02T12:01:36.298Z,78.03
2023-01-02T12:10:28.316Z,77.99
2023-01-02T12:19:12.772Z,78.01
2023-01-02T12:28:01.926Z,77.83
2023-01-02T12:36:59.101Z,77.97
2023-01-02T12:45:47.606Z,77.99
2023-01-02T12:54:31.825Z,77.90
2023-01-02T13:03:22.652Z,77.85
2023-01-02T13:11:50.509Z,77.71
2023-01-02T13:21:07.927Z,77.63
2023-01-02T13:29:44.391Z,77.54
2023-01-02T13:38:13.689Z,77.51
2023-01-02T13:47:03.084Z,77.53
2023-01-02T13:55:22.196Z,77.57
2023-01-02T14:03:45.110Z,77.51
2023-01-02T14:12:12.827Z,77.59
2023-01-02T14:20:38.576Z,77.60
2023-01-02T14:29:10.354Z,77.59
2023-01-02T14:37:45.450Z,77.41
2023-01-02T14:46:16.908Z,77.32
2023-01-02T14:54:48.641Z,77.43
2023-01-02T15:03:31.958Z,77.38
2023-01-02T15:12:16.331Z,77.35
2023-01-02T15:20:40.092Z,77.13
2023-01-02T15:29:23.659Z,77.15
2023-01-02T15:37:48.653Z,77.12
2023-01-02T15:46:13.095Z,77.11
2023-01-02T15:54:37.246Z,77.30
2023-01-02T16:03:00.623Z,77.11
2023-01-02T16:11:25.075Z,77.33
2023-01-02T16:19:58.877Z,77.17
2023-01-02T16:28:35.191Z,77.25
2023-01-02T16:37:14.688Z,77.39
2023-01-02T16:45:39.163Z,77.24
2023-01-02T16:54:02.551Z,77.46
2023-01-02T17:02:25.406Z,77.28
2023-01-02T17:10:49.736Z,77.26
2023-01-02T17:19:13.252Z,77.18
2023-01-02T17:27:36.141Z,77.22
2023-01-02T17:35:59.450Z,77.38
2023-01-02T17:44:22.260Z,77.30
2023-01-02T17:52:45.211Z,77.32
2023-01-02T18:01:13.919Z,77.49
2023-01-02T18:09:37.418Z,77.45
2023-01-02T18:18:03.054Z,77.28
2023-01-02T18:26:27.127Z,77.43
2023-01-02T18:34:57.474Z,77.29
2023-01-02T18:43:29.502Z,77.38
2023-01-02T18:52:28.937Z,77.37
2023-01-02T19:00:53.981Z,77.33
2023-01-02T19:09:23.510Z,77.30
2023-01-02T19:17:46.432Z,77.31
2023-01-02T19:26:32.264Z,77.13
2023-01-02T19:35:24.358Z,77.39
2023-01-02T19:43:47.116Z,77.21
2023-01-02T19:52:11.332Z,77.11
2023-01-02T20:00:34.214Z,77.15
2023-01-02T20:08:57.321Z,77.25
2023-01-02T20:17:20.696Z,77.26
2023-01-02T20:25:45.075Z,77.47
2023-01-02T20:34:08.078Z,77.59
2023-01-02T20:42:32.874Z,77.34
2023-01-02T20:50:55.746Z,77.50
2023-01-02T20:59:19.327Z,77.39
2023-01-02T21:07:42.223Z,77.42
2023-01-02T21:16:05.284Z,77.20
2023-01-02T21:24:28.141Z,77.34
2023-01-02T21:32:51.078Z,77.26
2023-01-02T21:41:32.420Z,77.42
2023-01-02T21:49:55.284Z,77.56
2023-01-02T21:58:18.152Z,77.53
2023-01-02T22:07:20.762Z,77.88
2023-01-02T22:15:24.633Z,77.62
2023-01-02T22:23:47.527Z,77.78
2023-01-02T22:32:10.705Z,77.90
2023-01-02T22:40:35.483Z,78.00
2023-01-02T22:48:58.893Z,77.97
2023-01-02T22:57:21.736Z,78.01
2023-01-02T23:05:44.710Z,78.06
2023-01-02T23:14:10.194Z,77.75
2023-01-02T23:22:33.889Z,77.96
2023-01-02T23:30:56.913Z,78.14
2023-01-02T23:39:22.858Z,77.93
2023-01-02T23:47:45.672Z,78.26
2023-01-02T23:56:23.513Z,78.11
